createdAt,value
2017-09-27T03:30:11.891Z,95.50
2017-09-27T03:32:39.477Z,95.40
2017-09-27T03:35:07.074Z,95.30
2017-09-27T03:37:35.469Z,95.00
2017-09-27T03:40:04.163Z,95.20
2017-09-27T03:42:31.754Z,95.10
2017-09-27T03:44:59.470Z,94.90
2017-09-27T03:47:27.845Z,94.80
2017-09-27T03:49:56.246Z,94.30
2017-09-27T03:52:23.830Z,94.20
2017-09-27T03:54:51.420Z,94.70
2017-09-27T03:57:19.305Z,94.00
2017-09-27T03:59:47.660Z,95.00
2017-09-27T04:02:15.250Z,95.00
2017-09-27T04:04:42.901Z,94.90
2017-09-27T04:07:11.254Z,94.70
2017-09-27T04:09:38.849Z,94.70
2017-09-27T04:12:06.484Z,94.60
2017-09-27T04:14:34.074Z,94.70
2017-09-27T04:17:01.715Z,94.60
2017-09-27T04:19:30.189Z,94.40
2017-09-27T04:21:58.541Z,94.60
2017-09-27T04:24:26.130Z,94.60
2017-09-27T04:26:54.522Z,94.60
2017-09-27T04:29:22.115Z,94.50
2017-09-27T04:31:49.726Z,94.10
2017-09-27T04:34:18.209Z,94.30
2017-09-27T04:36:46.634Z,94.50
2017-09-27T04:39:14.246Z,94.50
2017-09-27T04:41:42.670Z,94.30
2017-09-27T04:44:10.286Z,94.20
2017-09-27T04:46:38.642Z,94.80
2017-09-27T04:49:06.269Z,94.80
2017-09-27T04:51:33.861Z,95.20
2017-09-27T04:54:01.450Z,94.90
2017-09-27T04:56:29.058Z,95.20
2017-09-27T04:58:56.753Z,95.30
2017-09-27T05:01:25.233Z,94.10
2017-09-27T05:03:53.584Z,93.80
2017-09-27T05:06:21.172Z,93.80
2017-09-27T05:08:49.559Z,94.10
2017-09-27T05:11:17.150Z,94.10
2017-09-27T05:13:44.770Z,94.40
2017-09-27T05:16:13.193Z,95.00
2017-09-27T05:18:40.782Z,95.00
2017-09-27T05:21:08.374Z,94.90
2017-09-27T05:23:36.022Z,95.20
2017-09-27T05:26:04.401Z,94.30
2017-09-27T05:28:32.754Z,93.90
2017-09-27T05:31:00.537Z,93.90
2017-09-27T05:33:28.920Z,94.30
2017-09-27T05:35:57.269Z,94.20
2017-09-27T05:38:24.882Z,94.50
2017-09-27T05:40:52.474Z,94.50
2017-09-27T05:43:20.176Z,94.30
2017-09-27T05:45:48.562Z,94.00
2017-09-27T05:48:16.149Z,94.00
2017-09-27T05:50:43.746Z,94.60
2017-09-27T05:53:11.358Z,94.50
2017-09-27T05:55:38.949Z,94.00
2017-09-27T05:58:06.595Z,93.70
2017-09-27T06:00:34.178Z,93.80
2017-09-27T06:03:01.761Z,93.40
2017-09-27T06:05:30.141Z,93.70
2017-09-27T06:07:58.498Z,93.60
2017-09-27T06:10:26.093Z,93.50
2017-09-27T06:12:53.832Z,93.40
2017-09-27T06:15:22.543Z,94.20
2017-09-27T06:17:50.151Z,94.20
2017-09-27T06:20:18.146Z,94.50
2017-09-27T06:22:46.502Z,93.40
2017-09-27T06:27:46.930Z,94.00
2017-09-27T06:30:14.530Z,93.50
2017-09-27T06:32:42.899Z,93.90
2017-09-27T06:35:11.297Z,93.90
2017-09-27T06:37:38.892Z,93.80
2017-09-27T06:40:06.486Z,93.40
2017-09-27T06:42:34.102Z,93.60
2017-09-27T06:45:01.693Z,93.80
2017-09-27T06:47:29.482Z,93.30
2017-09-27T06:49:57.841Z,93.40
2017-09-27T06:52:25.429Z,93.40
2017-09-27T06:54:53.245Z,93.80
2017-09-27T06:57:20.842Z,93.90
2017-09-27T06:59:49.197Z,92.70
2017-09-27T07:02:16.834Z,93.00
2017-09-27T07:04:45.195Z,92.90
2017-09-27T07:07:12.785Z,92.90
2017-09-27T07:09:40.406Z,93.00
2017-09-27T07:12:07.992Z,93.70
2017-09-27T07:14:35.582Z,93.70
2017-09-27T07:17:03.991Z,93.70
2017-09-27T07:19:31.582Z,93.70
2017-09-27T07:21:59.174Z,93.60
2017-09-27T07:24:27.771Z,93.00
2017-09-27T07:26:56.126Z,92.60
2017-09-27T07:29:23.709Z,92.60
2017-09-27T07:31:51.573Z,92.30
2017-09-27T07:34:19.917Z,92.40
2017-09-27T07:36:47.511Z,92.40
2017-09-27T07:39:16.053Z,92.80
2017-09-27T07:41:43.637Z,92.80
2017-09-27T07:44:11.222Z,92.70
2017-09-27T07:46:39.070Z,92.50
2017-09-27T07:49:07.426Z,92.30
2017-09-27T07:51:35.026Z,92.30
2017-09-27T07:54:02.653Z,92.10
2017-09-27T07:56:31.014Z,92.10
2017-09-27T07:58:59.134Z,92.10
2017-09-27T08:01:26.814Z,92.10
2017-09-27T08:03:54.398Z,91.80
2017-09-27T08:06:21.989Z,91.80
2017-09-27T08:08:50.386Z,91.50
2017-09-27T08:11:17.975Z,91.50
2017-09-27T08:13:45.562Z,91.40
2017-09-27T08:16:13.173Z,91.30
2017-09-27T08:18:40.762Z,91.20
2017-09-27T08:21:08.353Z,91.10
2017-09-27T08:23:35.961Z,90.90
2017-09-27T08:26:03.551Z,90.90
2017-09-27T08:28:31.198Z,90.70
2017-09-27T08:30:58.781Z,90.50
2017-09-27T08:33:26.365Z,90.50
2017-09-27T08:35:54.769Z,90.70
2017-09-27T08:38:22.352Z,90.70
2017-09-27T08:40:49.945Z,90.70
2017-09-27T08:43:17.554Z,90.60
2017-09-27T08:45:45.145Z,90.50
2017-09-27T08:48:12.755Z,90.60
2017-09-27T08:50:40.341Z,90.30
2017-09-27T08:53:07.926Z,90.20
2017-09-27T08:55:35.814Z,90.30
2017-09-27T08:58:04.161Z,88.80
2017-09-27T09:00:31.746Z,88.80
2017-09-27T09:03:00.124Z,87.50
2017-09-27T09:05:28.483Z,86.60
2017-09-27T09:07:56.141Z,86.60
2017-09-27T09:10:23.726Z,87.20
2017-09-27T09:12:52.077Z,86.60
2017-09-27T09:15:19.990Z,86.60
2017-09-27T09:17:48.386Z,86.40
2017-09-27T09:20:15.970Z,86.40
2017-09-27T09:22:43.585Z,86.20
2017-09-27T09:25:11.174Z,86.50
2017-09-27T09:27:38.761Z,86.70
2017-09-27T09:30:06.419Z,87.10
2017-09-27T09:32:34.046Z,86.60
2017-09-27T09:35:01.689Z,86.60
2017-09-27T09:37:29.297Z,86.90
2017-09-27T09:39:56.910Z,85.70
2017-09-27T09:42:24.503Z,85.30
2017-09-27T09:44:52.094Z,84.90
2017-09-27T09:47:20.502Z,85.90
2017-09-27T09:49:48.090Z,86.50
2017-09-27T09:52:15.678Z,85.70
2017-09-27T09:54:43.410Z,85.30
2017-09-27T09:57:10.993Z,85.70
2017-09-27T09:59:38.585Z,85.20
2017-09-27T10:02:06.198Z,85.60
2017-09-27T10:04:33.795Z,85.50
2017-09-27T10:07:02.383Z,84.90
2017-09-27T10:09:29.973Z,84.90
2017-09-27T10:11:57.557Z,85.00
2017-09-27T10:14:25.338Z,85.20
2017-09-27T10:16:52.925Z,85.40
2017-09-27T10:19:20.510Z,85.00
2017-09-27T10:21:48.146Z,84.20
2017-09-27T10:24:15.734Z,85.20
2017-09-27T10:26:43.322Z,83.80
2017-09-27T10:29:10.950Z,83.70
2017-09-27T10:31:38.589Z,83.20
2017-09-27T10:34:06.182Z,82.90
2017-09-27T10:36:33.989Z,82.80
2017-09-27T10:39:02.342Z,82.90
2017-09-27T10:41:29.930Z,82.80
2017-09-27T10:43:58.305Z,82.90
2017-09-27T10:46:26.671Z,82.70
2017-09-27T10:48:55.050Z,82.90
2017-09-27T10:51:23.406Z,82.10
2017-09-27T10:53:51.004Z,82.10
2017-09-27T10:56:18.711Z,81.70
2017-09-27T10:58:46.339Z,81.90
2017-09-27T11:01:13.918Z,81.50
2017-09-27T11:03:43.941Z,81.50
2017-09-27T11:06:12.341Z,82.20
2017-09-27T11:08:39.971Z,82.10
2017-09-27T11:11:07.562Z,81.10
2017-09-27T11:13:35.157Z,81.00
2017-09-27T11:16:03.014Z,80.60
2017-09-27T11:18:31.370Z,79.40
2017-09-27T11:20:58.962Z,79.40
2017-09-27T11:23:26.570Z,80.00
2017-09-27T11:25:54.154Z,80.40
2017-09-27T11:28:22.534Z,81.10
2017-09-27T11:30:50.902Z,80.40
2017-09-27T11:33:18.490Z,80.40
2017-09-27T11:35:46.128Z,80.40
2017-09-27T11:38:14.486Z,79.70
2017-09-27T11:40:42.078Z,79.70
2017-09-27T11:43:10.450Z,79.80
2017-09-27T11:45:38.802Z,78.20
2017-09-27T11:48:06.438Z,78.20
2017-09-27T11:50:34.024Z,77.60
2017-09-27T11:53:01.610Z,78.90
2017-09-27T11:55:30.186Z,79.50
2017-09-27T11:57:58.551Z,78.30
2017-09-27T12:00:26.910Z,79.30
2017-09-27T12:02:54.518Z,79.20
2017-09-27T12:05:22.106Z,79.70
2017-09-27T12:07:49.691Z,79.10
2017-09-27T12:10:17.333Z,79.40
2017-09-27T12:12:44.914Z,79.40
2017-09-27T12:15:12.498Z,79.90
2017-09-27T12:17:40.894Z,78.00
2017-09-27T12:20:08.483Z,77.90
2017-09-27T12:22:36.078Z,78.40
2017-09-27T12:25:03.688Z,78.70
2017-09-27T12:27:31.275Z,78.10
2017-09-27T12:29:58.874Z,78.40
2017-09-27T12:32:27.250Z,79.30
2017-09-27T12:34:54.841Z,79.30
2017-09-27T12:37:22.430Z,79.10
2017-09-27T12:39:50.091Z,78.70
2017-09-27T12:42:17.681Z,79.30
2017-09-27T12:44:46.030Z,78.90
2017-09-27T12:47:13.642Z,78.80
2017-09-27T12:49:41.227Z,79.00
2017-09-27T12:52:08.810Z,77.40
2017-09-27T12:54:36.421Z,78.60
2017-09-27T12:57:04.010Z,77.10
2017-09-27T12:59:31.597Z,77.40
2017-09-27T13:01:59.382Z,77.80
2017-09-27T13:04:27.731Z,76.40
2017-09-27T13:06:55.320Z,76.40
2017-09-27T13:09:22.949Z,76.30
2017-09-27T13:11:50.538Z,77.30
2017-09-27T13:14:18.890Z,77.20
2017-09-27T13:16:46.516Z,77.20
2017-09-27T13:19:14.909Z,78.20
2017-09-27T13:21:42.489Z,78.20
2017-09-27T13:24:10.230Z,79.30
2017-09-27T13:26:37.820Z,78.00
2017-09-27T13:29:06.170Z,78.00
2017-09-27T13:31:33.956Z,78.00
2017-09-27T13:34:02.390Z,78.10
2017-09-27T13:36:29.974Z,78.10
2017-09-27T13:38:57.594Z,78.60
2017-09-27T13:41:25.180Z,78.90
2017-09-27T13:43:52.771Z,78.20
2017-09-27T13:46:21.146Z,77.60
2017-09-27T13:48:49.495Z,78.10
2017-09-27T13:51:17.868Z,77.00
2017-09-27T13:53:45.449Z,77.00
2017-09-27T13:56:13.038Z,77.10
2017-09-27T13:58:40.897Z,76.70
2017-09-27T14:01:09.245Z,76.70
2017-09-27T14:03:36.826Z,76.80
2017-09-27T14:06:05.406Z,77.90
2017-09-27T14:08:33.762Z,78.60
2017-09-27T14:11:01.346Z,78.60
2017-09-27T14:13:29.742Z,78.40
2017-09-27T14:15:57.326Z,78.40
2017-09-27T14:18:24.910Z,78.70
2017-09-27T14:20:52.518Z,78.40
2017-09-27T14:23:20.102Z,78.10
2017-09-27T14:25:47.726Z,79.50
2017-09-27T14:28:15.312Z,80.20
2017-09-27T14:30:42.910Z,80.00
2017-09-27T14:33:10.526Z,80.20
2017-09-27T14:35:38.111Z,79.00
2017-09-27T14:38:05.702Z,79.40
2017-09-27T14:40:34.142Z,79.50
2017-09-27T14:43:01.734Z,79.20
2017-09-27T14:45:29.317Z,80.10
2017-09-27T14:47:57.166Z,79.80
2017-09-27T14:50:25.518Z,80.70
2017-09-27T14:52:53.103Z,80.70
2017-09-27T14:55:21.706Z,80.00
2017-09-27T14:57:49.291Z,79.90
2017-09-27T15:00:16.918Z,79.80
2017-09-27T15:02:44.570Z,79.50
2017-09-27T15:05:12.918Z,79.40
2017-09-27T15:07:40.547Z,79.40
2017-09-27T15:10:08.170Z,79.20
2017-09-27T15:12:36.570Z,79.50
2017-09-27T15:15:04.159Z,79.50
2017-09-27T15:17:31.948Z,79.90
2017-09-27T15:19:59.533Z,79.80
2017-09-27T15:22:27.122Z,79.70
2017-09-27T15:24:54.962Z,80.80
2017-09-27T15:27:22.554Z,80.10
2017-09-27T15:29:50.133Z,79.60
2017-09-27T15:32:18.036Z,80.00
2017-09-27T15:34:45.626Z,79.60
2017-09-27T15:37:13.217Z,80.10
2017-09-27T15:39:40.830Z,80.80
2017-09-27T15:42:08.451Z,81.20
2017-09-27T15:44:36.330Z,81.30
2017-09-27T15:47:04.685Z,81.50
2017-09-27T15:49:32.277Z,81.40
2017-09-27T15:51:59.886Z,81.50
2017-09-27T15:54:27.478Z,82.00
2017-09-27T15:56:55.839Z,82.70
2017-09-27T15:59:23.450Z,83.40
2017-09-27T16:01:51.039Z,82.70
2017-09-27T16:04:19.422Z,83.90
2017-09-27T16:06:47.018Z,84.80
2017-09-27T16:09:15.369Z,84.20
2017-09-27T16:11:43.028Z,84.20
2017-09-27T16:14:10.638Z,84.30
2017-09-27T16:16:38.222Z,84.80
2017-09-27T16:19:05.960Z,85.40
2017-09-27T16:21:33.550Z,85.30
2017-09-27T16:24:01.137Z,85.70
2017-09-27T16:26:28.785Z,85.80
2017-09-27T16:28:56.379Z,87.00
2017-09-27T16:31:24.734Z,87.80
2017-09-27T16:33:52.366Z,87.90
2017-09-27T16:36:19.958Z,89.10
2017-09-27T16:38:48.314Z,89.00
2017-09-27T16:41:15.950Z,89.00
2017-09-27T16:43:43.537Z,88.70
2017-09-27T16:46:11.118Z,89.20
2017-09-27T16:48:39.494Z,88.80
2017-09-27T16:51:07.850Z,89.10
2017-09-27T16:53:35.466Z,89.00
2017-09-27T16:56:03.055Z,90.20
2017-09-27T16:58:30.647Z,90.30
2017-09-27T17:00:59.026Z,90.40
2017-09-27T17:03:27.382Z,90.30
2017-09-27T17:05:54.993Z,90.30
2017-09-27T17:08:22.578Z,90.50
2017-09-27T17:10:50.162Z,91.30
2017-09-27T17:13:17.786Z,91.50
2017-09-27T17:15:45.377Z,92.00
2017-09-27T17:18:13.270Z,92.00
2017-09-27T17:20:41.622Z,92.50
2017-09-27T17:23:09.216Z,92.20
2017-09-27T17:25:36.826Z,92.10
2017-09-27T17:28:04.417Z,92.40
2017-09-27T17:30:32.767Z,93.00
2017-09-27T17:33:00.403Z,93.00
2017-09-27T17:35:27.995Z,92.40
2017-09-27T17:37:55.577Z,91.80
2017-09-27T17:40:23.986Z,92.10
2017-09-27T17:42:51.585Z,92.10
2017-09-27T17:45:19.174Z,92.20
2017-09-27T17:47:47.760Z,92.50
2017-09-27T17:50:16.118Z,92.40
2017-09-27T17:52:43.714Z,92.40
2017-09-27T17:55:11.327Z,93.30
2017-09-27T17:57:38.915Z,93.40
2017-09-27T18:00:07.330Z,92.90
2017-09-27T18:02:34.918Z,92.90
2017-09-27T18:05:09.186Z,92.70
2017-09-27T18:07:42.458Z,92.70
2017-09-27T18:10:25.856Z,93.40
2017-09-27T18:12:59.334Z,93.80
2017-09-27T18:15:32.771Z,93.80
2017-09-27T18:18:14.103Z,93.80
2017-09-27T18:20:41.691Z,93.70
2017-09-27T18:23:09.277Z,94.30
2017-09-27T18:25:37.674Z,94.50
2017-09-27T18:28:05.265Z,94.50
2017-09-27T18:30:32.848Z,94.20
2017-09-27T18:33:00.463Z,94.20
2017-09-27T18:35:28.051Z,94.00
2017-09-27T18:37:55.725Z,94.00
2017-09-27T18:40:23.311Z,94.00
2017-09-27T18:42:51.667Z,94.30
2017-09-27T18:45:19.303Z,94.20
2017-09-27T18:47:48.486Z,94.10
2017-09-27T18:50:17.009Z,94.10
2017-09-27T18:52:45.422Z,94.10
2017-09-27T18:55:13.015Z,94.00
2017-09-27T18:57:40.599Z,94.00
2017-09-27T19:00:09.003Z,94.00
2017-09-27T19:02:36.593Z,94.10
2017-09-27T19:05:04.182Z,94.10
2017-09-27T19:07:31.798Z,94.10
2017-09-27T19:09:59.381Z,94.20
2017-09-27T19:12:27.293Z,94.10
2017-09-27T19:14:55.645Z,94.20
2017-09-27T19:17:23.242Z,94.20
2017-09-27T19:19:50.873Z,94.30
2017-09-27T19:22:18.462Z,94.40
2017-09-27T19:24:46.049Z,94.40
2017-09-27T19:27:13.678Z,94.40
2017-09-27T19:29:41.261Z,94.30
2017-09-27T19:32:08.895Z,94.40
2017-09-27T19:34:37.297Z,94.30
2017-09-27T19:37:04.878Z,94.30
2017-09-27T19:39:32.473Z,94.20
2017-09-27T19:42:00.874Z,94.60
2017-09-27T19:44:28.466Z,94.30
2017-09-27T19:46:56.064Z,94.40
2017-09-27T19:49:23.696Z,94.60
2017-09-27T19:51:51.289Z,94.30
2017-09-27T19:54:19.645Z,94.30
2017-09-27T19:56:47.291Z,94.30
2017-09-27T19:59:14.952Z,94.30
2017-09-27T20:01:42.549Z,94.30
2017-09-27T20:04:10.264Z,94.40
2017-09-27T20:06:37.862Z,94.30
2017-09-27T20:09:06.223Z,94.20
2017-09-27T20:11:34.834Z,93.70
2017-09-27T20:14:03.208Z,93.70
2017-09-27T20:16:31.566Z,94.00
2017-09-27T20:18:59.180Z,94.00
2017-09-27T20:21:26.774Z,93.60
2017-09-27T20:23:54.373Z,94.40
2017-09-27T20:26:21.991Z,94.00
2017-09-27T20:28:49.586Z,94.10
2017-09-27T20:31:17.961Z,94.30
2017-09-27T20:33:45.582Z,94.30
2017-09-27T20:36:13.182Z,94.20
2017-09-27T20:38:40.792Z,94.30
2017-09-27T20:41:08.521Z,94.40
2017-09-27T20:43:36.118Z,94.10
2017-09-27T20:46:03.718Z,94.30
2017-09-27T20:48:32.278Z,94.00
2017-09-27T20:50:59.883Z,94.10
2017-09-27T20:53:27.486Z,94.20
2017-09-27T20:55:55.131Z,94.20
2017-09-27T20:58:22.730Z,93.90
2017-09-27T21:00:51.086Z,94.10
2017-09-27T21:03:18.710Z,94.10
2017-09-27T21:05:46.310Z,94.20
2017-09-27T21:08:13.926Z,94.60
2017-09-27T21:10:41.526Z,94.80
2017-09-27T21:13:09.118Z,94.90
2017-09-27T21:15:36.733Z,94.50
2017-09-27T21:18:04.337Z,94.60
2017-09-27T21:20:31.981Z,94.80
2017-09-27T21:23:00.338Z,94.80
2017-09-27T21:25:27.935Z,94.80
2017-09-27T21:27:55.719Z,95.00
2017-09-27T21:30:23.310Z,95.20
2017-09-27T21:32:50.906Z,94.80
2017-09-27T21:35:19.305Z,94.30
2017-09-27T21:37:46.898Z,94.30
2017-09-27T21:40:14.485Z,93.90
2017-09-27T21:42:42.901Z,94.80
2017-09-27T21:45:10.524Z,94.80
2017-09-27T21:47:38.894Z,94.90
2017-09-27T21:50:06.518Z,94.80
2017-09-27T21:52:34.173Z,94.80
2017-09-27T21:55:01.774Z,94.60
2017-09-27T21:57:29.367Z,94.00
2017-09-27T21:59:56.982Z,93.90
2017-09-27T22:02:24.870Z,94.40
2017-09-27T22:04:53.226Z,95.10
2017-09-27T22:07:20.850Z,95.10
2017-09-27T22:09:48.503Z,95.20
2017-09-27T22:12:16.155Z,95.40
2017-09-27T22:14:43.789Z,94.60
2017-09-27T22:17:12.183Z,94.10
2017-09-27T22:19:39.850Z,94.10
2017-09-27T22:22:07.480Z,95.10
2017-09-27T22:24:35.870Z,94.60
2017-09-27T22:27:04.487Z,95.20
2017-09-27T22:29:32.110Z,95.20
